createdAt,value
2023-05-14T00:01:32.087Z,10.80
2023-05-14T00:03:59.205Z,10.63
2023-05-14T00:06:26.341Z,11.40
2023-05-14T00:08:53.420Z,12.37
2023-05-14T00:11:21.274Z,11.20
2023-05-14T00:13:48.588Z,12.20
2023-05-14T00:16:16.006Z,12.30
2023-05-14T00:18:43.238Z,13.57
2023-05-14T00:21:10.243Z,11.97
2023-05-14T00:23:37.231Z,11.73
2023-05-14T00:26:04.286Z,11.77
2023-05-14T00:28:31.347Z,13.33
2023-05-14T00:30:58.476Z,13.13
2023-05-14T00:33:25.567Z,14.37
2023-05-14T00:35:52.646Z,12.27
2023-05-14T00:38:19.701Z,12.73
2023-05-14T00:40:51.246Z,12.40
2023-05-14T00:43:21.563Z,12.80
2023-05-14T00:45:50.390Z,12.70
2023-05-14T00:48:17.571Z,13.07
2023-05-14T00:50:44.750Z,13.77
2023-05-14T00:53:12.326Z,12.97
2023-05-14T00:55:39.617Z,14.90
2023-05-14T00:58:13.472Z,15.60
2023-05-14T01:00:41.293Z,13.90
2023-05-14T01:03:09.069Z,14.10
2023-05-14T01:05:42.367Z,14.43
2023-05-14T01:08:33.153Z,14.70
2023-05-14T01:11:04.241Z,14.57
2023-05-14T01:13:38.126Z,15.73
2023-05-14T01:16:05.630Z,13.87
2023-05-14T01:18:33.195Z,15.20
2023-05-14T01:21:00.280Z,13.97
2023-05-14T01:23:27.279Z,15.33
2023-05-14T01:25:54.280Z,13.90
2023-05-14T01:28:23.626Z,15.07
2023-05-14T01:31:12.795Z,12.67
2023-05-14T01:33:42.933Z,14.90
2023-05-14T01:36:10.429Z,15.50
2023-05-14T01:38:37.908Z,14.43
2023-05-14T01:41:05.665Z,16.07
2023-05-14T01:43:32.934Z,16.00
2023-05-14T01:46:00.055Z,16.37
2023-05-14T01:48:27.129Z,15.43
2023-05-14T01:50:54.237Z,18.23
2023-05-14T01:53:21.457Z,16.93
2023-05-14T01:55:48.446Z,16.13
2023-05-14T01:58:15.492Z,14.97
2023-05-14T02:00:42.510Z,16.43
2023-05-14T02:03:09.565Z,17.03
2023-05-14T02:05:36.646Z,16.63
2023-05-14T02:08:03.666Z,16.80
2023-05-14T02:10:30.669Z,16.20
2023-05-14T02:12:57.658Z,16.33
2023-05-14T02:15:24.712Z,15.73
2023-05-14T02:17:51.934Z,15.17
2023-05-14T02:20:19.148Z,17.80
2023-05-14T02:22:46.472Z,16.37
2023-05-14T02:25:13.481Z,15.60
2023-05-14T02:27:40.521Z,17.17
2023-05-14T02:30:07.832Z,16.67
2023-05-14T02:32:34.939Z,15.97
2023-05-14T02:35:02.081Z,16.07
2023-05-14T02:37:29.133Z,16.03
2023-05-14T02:39:56.123Z,15.57
2023-05-14T02:42:23.214Z,19.53
2023-05-14T02:44:52.191Z,16.63
2023-05-14T02:47:19.635Z,19.10
2023-05-14T02:49:46.676Z,16.57
2023-05-14T02:52:13.667Z,17.87
2023-05-14T02:54:40.694Z,16.97
2023-05-14T02:57:07.733Z,15.70
2023-05-14T02:59:35.254Z,15.97
2023-05-14T03:02:02.802Z,15.47
2023-05-14T03:04:30.309Z,16.50
2023-05-14T03:06:57.352Z,15.77
2023-05-14T03:09:24.391Z,14.70
2023-05-14T03:11:51.435Z,15.73
2023-05-14T03:14:18.450Z,14.17
2023-05-14T03:16:46.028Z,15.43
2023-05-14T03:19:13.205Z,15.97
2023-05-14T03:21:40.498Z,15.30
2023-05-14T03:24:07.609Z,15.23
2023-05-14T03:26:34.773Z,15.47
2023-05-14T03:29:01.766Z,14.70
2023-05-14T03:31:28.829Z,14.70
2023-05-14T03:33:55.901Z,13.80
2023-05-14T03:36:22.998Z,13.63
2023-05-14T03:38:50.054Z,15.00
2023-05-14T03:41:18.425Z,14.07
2023-05-14T03:43:45.391Z,13.73
2023-05-14T03:46:12.417Z,14.67
2023-05-14T03:48:39.391Z,14.33
2023-05-14T03:51:06.441Z,14.43
2023-05-14T03:53:34.261Z,13.67
2023-05-14T03:56:01.273Z,13.53
2023-05-14T03:58:28.269Z,13.67
2023-05-14T04:00:55.235Z,12.63
2023-05-14T04:03:22.313Z,13.20
2023-05-14T04:05:49.343Z,12.77
2023-05-14T04:08:16.407Z,11.93
2023-05-14T04:10:43.571Z,13.00
2023-05-14T04:13:10.738Z,12.43
2023-05-14T04:15:39.207Z,11.77
2023-05-14T04:18:06.607Z,12.40
2023-05-14T04:20:33.713Z,12.87
2023-05-14T04:23:00.685Z,14.97
2023-05-14T04:25:27.666Z,13.00
2023-05-14T04:27:54.849Z,12.13
2023-05-14T04:30:22.267Z,12.50
2023-05-14T04:32:49.534Z,11.90
2023-05-14T04:35:16.555Z,10.93
2023-05-14T04:37:43.583Z,11.93
2023-05-14T04:40:13.602Z,12.07
2023-05-14T04:42:40.730Z,11.17
2023-05-14T04:45:08.750Z,11.30
2023-05-14T04:47:35.922Z,10.97
2023-05-14T04:50:03.100Z,11.60
2023-05-14T04:52:30.076Z,11.33
2023-05-14T04:54:57.137Z,10.93
2023-05-14T04:57:24.094Z,11.23
2023-05-14T04:59:51.105Z,10.50
2023-05-14T05:02:18.150Z,11.43
2023-05-14T05:04:45.306Z,11.27
2023-05-14T05:07:13.188Z,11.47
2023-05-14T05:09:40.291Z,10.00
2023-05-14T05:12:07.853Z,10.97
2023-05-14T05:14:34.860Z,10.75
2023-05-14T05:17:01.869Z,10.63
2023-05-14T05:19:39.740Z,9.87
2023-05-14T05:22:10.597Z,10.30
2023-05-14T05:24:37.685Z,10.83
2023-05-14T05:27:05.545Z,10.33
2023-05-14T05:29:32.657Z,10.40
2023-05-14T05:31:59.817Z,10.37
2023-05-14T05:34:26.963Z,11.13
2023-05-14T05:36:53.924Z,10.33
2023-05-14T05:39:20.941Z,10.60
2023-05-14T05:41:47.972Z,10.33
2023-05-14T05:44:15.121Z,9.60
2023-05-14T05:46:42.178Z,9.43
2023-05-14T05:49:09.250Z,9.67
2023-05-14T05:51:36.227Z,9.17
2023-05-14T05:54:03.256Z,9.50
2023-05-14T05:56:30.757Z,8.93
2023-05-14T05:58:57.758Z,9.37
2023-05-14T06:01:24.813Z,8.40
2023-05-14T06:03:51.834Z,9.27
2023-05-14T06:06:18.883Z,9.30
2023-05-14T06:08:45.885Z,8.97
2023-05-14T06:11:12.923Z,8.93
2023-05-14T06:13:39.995Z,10.03
2023-05-14T06:16:07.158Z,9.23
2023-05-14T06:18:34.234Z,8.67
2023-05-14T06:21:01.361Z,9.30
2023-05-14T06:23:28.384Z,9.60
2023-05-14T06:25:55.426Z,9.47
2023-05-14T06:28:22.565Z,9.97
2023-05-14T06:30:53.925Z,9.03
2023-05-14T06:33:31.562Z,8.47
2023-05-14T06:35:59.396Z,8.67
2023-05-14T06:38:26.439Z,9.87
2023-05-14T06:40:53.418Z,10.40
2023-05-14T06:43:20.835Z,8.93
2023-05-14T06:45:51.060Z,9.30
2023-05-14T06:48:21.505Z,9.40
2023-05-14T06:50:49.500Z,9.73
2023-05-14T06:53:16.811Z,9.17
2023-05-14T06:55:43.844Z,8.47
2023-05-14T06:58:10.930Z,9.67
2023-05-14T07:00:38.194Z,9.53
2023-05-14T07:03:05.291Z,8.80
2023-05-14T07:05:32.519Z,10.10
2023-05-14T07:07:59.718Z,8.73
2023-05-14T07:10:26.849Z,8.70
2023-05-14T07:12:53.873Z,13.60
2023-05-14T07:15:21.154Z,8.83
2023-05-14T07:17:48.265Z,9.07
2023-05-14T07:20:15.338Z,9.10
2023-05-14T07:22:42.418Z,11.13
2023-05-14T07:25:09.480Z,8.43
2023-05-14T07:27:36.514Z,9.70
2023-05-14T07:30:03.784Z,8.77
2023-05-14T07:32:30.933Z,9.50
2023-05-14T07:34:58.042Z,8.97
2023-05-14T07:37:26.050Z,9.30
2023-05-14T07:39:53.719Z,10.57
2023-05-14T07:42:34.296Z,10.17
2023-05-14T07:45:02.778Z,11.38
2023-05-14T07:47:30.022Z,9.90
2023-05-14T07:49:58.353Z,9.90
2023-05-14T07:52:25.330Z,9.93
2023-05-14T07:54:52.337Z,10.87
2023-05-14T07:57:19.878Z,9.23
2023-05-14T07:59:47.922Z,8.83
2023-05-14T08:02:16.072Z,9.27
2023-05-14T08:04:42.857Z,9.00
2023-05-14T08:07:09.742Z,9.73
2023-05-14T08:09:36.350Z,9.57
2023-05-14T08:12:03.407Z,9.67
2023-05-14T08:14:30.073Z,9.93
2023-05-14T08:16:56.710Z,11.87
2023-05-14T08:19:24.421Z,11.10
2023-05-14T08:21:51.416Z,11.60
2023-05-14T08:24:19.040Z,11.47
2023-05-14T08:26:45.677Z,11.40
2023-05-14T08:29:13.960Z,11.70
2023-05-14T08:31:42.205Z,10.53
2023-05-14T08:34:08.841Z,10.70
2023-05-14T08:36:35.506Z,11.47
2023-05-14T08:39:02.134Z,10.97
2023-05-14T08:41:28.811Z,10.80
2023-05-14T08:44:19.852Z,10.47
2023-05-14T08:46:46.651Z,10.67
2023-05-14T08:49:33.335Z,10.23
2023-05-14T08:52:00.636Z,11.00
2023-05-14T08:54:28.702Z,10.50
2023-05-14T08:56:55.993Z,11.23
2023-05-14T08:59:22.548Z,11.97
2023-05-14T09:01:59.254Z,10.67
2023-05-14T09:04:27.654Z,11.00
2023-05-14T09:06:54.946Z,10.60
2023-05-14T09:09:24.815Z,11.10
2023-05-14T09:11:53.025Z,11.77
2023-05-14T09:14:20.379Z,10.83
2023-05-14T09:16:48.707Z,10.50
2023-05-14T09:19:18.861Z,11.37
2023-05-14T09:21:47.042Z,10.97
2023-05-14T09:24:30.720Z,11.07
2023-05-14T09:26:58.329Z,12.20
2023-05-14T09:29:26.229Z,12.63
2023-05-14T09:31:54.078Z,11.47
2023-05-14T09:34:32.202Z,11.30
2023-05-14T09:36:59.565Z,11.70
2023-05-14T09:39:27.018Z,11.70
2023-05-14T09:41:54.708Z,11.90
2023-05-14T09:44:22.130Z,12.57
2023-05-14T09:46:50.111Z,12.87
2023-05-14T09:49:16.950Z,12.70
2023-05-14T09:51:43.916Z,12.63
2023-05-14T09:54:11.378Z,12.20
2023-05-14T09:56:39.361Z,11.87
2023-05-14T09:59:06.179Z,10.23
2023-05-14T10:01:33.292Z,10.87
2023-05-14T10:04:00.363Z,10.87
2023-05-14T10:06:30.251Z,10.43
2023-05-14T10:09:01.309Z,10.53
2023-05-14T10:11:33.674Z,10.33
2023-05-14T10:14:18.375Z,9.03
2023-05-14T10:16:51.397Z,8.73
2023-05-14T10:19:20.672Z,9.50
2023-05-14T10:21:57.034Z,9.03
2023-05-14T10:24:25.556Z,9.60
2023-05-14T10:26:52.533Z,9.47
2023-05-14T10:29:19.115Z,8.07
2023-05-14T10:31:50.417Z,8.03
2023-05-14T10:34:41.119Z,8.53
2023-05-14T10:37:10.759Z,7.77
2023-05-14T10:39:41.308Z,8.87
2023-05-14T10:42:11.145Z,8.27
2023-05-14T10:44:59.401Z,10.33
2023-05-14T10:47:26.559Z,9.47
2023-05-14T10:50:00.833Z,9.53
2023-05-14T10:52:27.475Z,9.90
2023-05-14T10:54:55.285Z,9.90
2023-05-14T10:57:27.733Z,10.03
2023-05-14T10:59:56.145Z,9.00
2023-05-14T11:02:31.099Z,8.43
2023-05-14T11:05:05.445Z,7.90
2023-05-14T11:07:40.459Z,9.07
2023-05-14T11:10:12.149Z,8.73
2023-05-14T11:12:41.166Z,9.93
2023-05-14T11:15:13.245Z,9.77
2023-05-14T11:17:41.834Z,8.73
2023-05-14T11:20:09.457Z,7.90
2023-05-14T11:22:36.921Z,7.23
2023-05-14T11:25:03.973Z,8.60
2023-05-14T11:27:31.961Z,8.00
2023-05-14T11:30:00.781Z,7.97
2023-05-14T11:32:27.743Z,8.47
2023-05-14T11:34:55.839Z,8.03
2023-05-14T11:37:22.445Z,8.27
2023-05-14T11:39:54.218Z,7.93
2023-05-14T11:42:22.273Z,7.90
2023-05-14T11:44:51.447Z,7.53
2023-05-14T11:47:19.837Z,6.90
2023-05-14T11:49:46.961Z,5.97
2023-05-14T11:52:15.303Z,8.00
2023-05-14T11:54:45.435Z,6.80
2023-05-14T11:57:18.571Z,6.07
2023-05-14T11:59:45.648Z,6.60
2023-05-14T12:02:13.960Z,5.77
2023-05-14T12:04:42.019Z,6.30
2023-05-14T12:07:09.859Z,6.37
2023-05-14T12:09:43.545Z,6.37
2023-05-14T12:12:12.572Z,6.83
2023-05-14T12:14:42.587Z,6.13
2023-05-14T12:17:23.441Z,7.03
2023-05-14T12:19:52.061Z,6.30
2023-05-14T12:22:22.197Z,5.97
2023-05-14T12:24:59.791Z,6.40
2023-05-14T12:27:27.839Z,5.53
2023-05-14T12:32:35.966Z,5.40
2023-05-14T12:35:02.974Z,6.17
2023-05-14T12:37:31.183Z,5.80
2023-05-14T12:39:57.918Z,5.30
2023-05-14T12:42:24.588Z,5.93
2023-05-14T12:44:51.114Z,5.23
2023-05-14T12:47:18.194Z,5.27
2023-05-14T12:49:44.862Z,5.80
2023-05-14T12:54:43.290Z,6.70
2023-05-14T12:57:10.120Z,5.70
2023-05-14T12:59:36.682Z,5.53
2023-05-14T13:02:03.264Z,5.23
2023-05-14T13:04:29.879Z,5.10
2023-05-14T13:06:56.508Z,4.93
2023-05-14T13:09:23.078Z,6.23
2023-05-14T13:11:49.692Z,4.33
2023-05-14T13:14:17.055Z,4.57
2023-05-14T13:16:44.915Z,4.90
2023-05-14T13:19:11.655Z,4.60
2023-05-14T13:21:38.353Z,4.03
2023-05-14T13:24:05.177Z,4.70
2023-05-14T13:26:31.719Z,4.63
2023-05-14T13:28:58.291Z,4.37
2023-05-14T13:31:25.112Z,3.90
2023-05-14T13:33:51.652Z,4.17
2023-05-14T13:36:18.581Z,3.97
2023-05-14T13:38:48.403Z,4.27
2023-05-14T13:41:14.999Z,4.30
2023-05-14T13:43:41.557Z,4.97
2023-05-14T13:46:08.274Z,4.73
2023-05-14T13:48:37.014Z,4.27
2023-05-14T13:51:03.636Z,4.50
2023-05-14T13:53:30.571Z,4.20
2023-05-14T13:55:58.345Z,4.37
2023-05-14T13:58:25.996Z,3.80
2023-05-14T14:00:53.214Z,4.67
2023-05-14T14:03:20.288Z,3.57
2023-05-14T14:05:48.656Z,4.00
2023-05-14T14:08:23.500Z,3.47
2023-05-14T14:10:51.587Z,3.50
2023-05-14T14:13:18.239Z,3.80
2023-05-14T14:15:44.905Z,3.83
2023-05-14T14:18:11.576Z,4.43
2023-05-14T14:20:38.493Z,4.33
2023-05-14T14:23:05.177Z,4.60
2023-05-14T14:25:31.748Z,7.23
2023-05-14T14:27:58.432Z,4.75
2023-05-14T14:30:25.025Z,4.27
2023-05-14T14:32:51.694Z,4.28
2023-05-14T14:35:19.765Z,4.60
2023-05-14T14:37:50.738Z,4.17
2023-05-14T14:40:17.699Z,4.10
2023-05-14T14:42:44.474Z,4.13
2023-05-14T14:45:11.872Z,3.50
2023-05-14T14:47:43.095Z,3.90
2023-05-14T14:50:11.408Z,4.00
2023-05-14T14:52:38.206Z,4.17
2023-05-14T14:55:05.568Z,4.13
2023-05-14T14:57:32.111Z,3.70
2023-05-14T14:59:59.839Z,3.57
2023-05-14T15:02:28.112Z,3.87
2023-05-14T15:04:54.802Z,3.37
2023-05-14T15:07:22.146Z,3.60
2023-05-14T15:09:48.741Z,4.27
2023-05-14T15:12:16.930Z,4.27
2023-05-14T15:14:43.565Z,3.50
2023-05-14T15:17:10.334Z,3.70
2023-05-14T15:19:37.186Z,3.83
2023-05-14T15:22:04.295Z,4.63
2023-05-14T15:24:30.867Z,3.90
2023-05-14T15:26:57.433Z,7.23
2023-05-14T15:29:23.983Z,3.77
2023-05-14T15:31:50.678Z,3.40
2023-05-14T15:34:17.211Z,3.43
2023-05-14T15:36:43.756Z,3.40
2023-05-14T15:39:10.332Z,3.03
2023-05-14T15:41:37.234Z,3.80
2023-05-14T15:44:42.871Z,4.32
2023-05-14T15:47:09.917Z,3.80
2023-05-14T15:49:36.938Z,5.57
2023-05-14T15:52:04.100Z,4.33
2023-05-14T15:54:31.215Z,3.23
2023-05-14T15:56:57.790Z,3.70
2023-05-14T15:59:24.520Z,3.43
2023-05-14T16:01:51.272Z,3.87
2023-05-14T16:04:17.868Z,3.67
2023-05-14T16:06:45.155Z,3.90
2023-05-14T16:09:11.733Z,3.93
2023-05-14T16:11:38.368Z,3.77
2023-05-14T16:14:04.947Z,3.67
2023-05-14T16:16:31.731Z,3.60
2023-05-14T16:18:59.086Z,3.80
2023-05-14T16:21:25.648Z,3.40
2023-05-14T16:23:52.224Z,3.83
2023-05-14T16:26:18.808Z,3.33
2023-05-14T16:28:45.477Z,3.60
2023-05-14T16:31:12.134Z,4.30
2023-05-14T16:33:38.737Z,3.70
2023-05-14T16:36:05.813Z,3.77
2023-05-14T16:38:32.779Z,5.63
2023-05-14T16:40:59.774Z,3.60
2023-05-14T16:43:26.772Z,5.10
2023-05-14T16:45:54.106Z,4.40
2023-05-14T16:48:21.184Z,3.60
2023-05-14T16:50:48.211Z,3.47
2023-05-14T16:53:15.244Z,3.37
2023-05-14T16:55:42.290Z,4.27
2023-05-14T16:58:09.361Z,4.73
2023-05-14T17:00:54.165Z,4.20
2023-05-14T17:03:23.288Z,3.60
2023-05-14T17:05:51.528Z,4.17
2023-05-14T17:08:18.541Z,3.40
2023-05-14T17:10:45.570Z,4.23
2023-05-14T17:13:12.645Z,3.73
2023-05-14T17:15:41.721Z,4.23
2023-05-14T17:18:09.003Z,3.90
2023-05-14T17:20:49.832Z,4.40
2023-05-14T17:23:17.080Z,3.83
2023-05-14T17:25:43.706Z,4.53
2023-05-14T17:28:10.323Z,4.25
2023-05-14T17:30:36.912Z,3.70
2023-05-14T17:33:03.580Z,4.07
2023-05-14T17:35:30.250Z,3.67
2023-05-14T17:37:57.861Z,4.67
2023-05-14T17:40:25.625Z,3.90
2023-05-14T17:42:52.189Z,4.07
2023-05-14T17:45:20.602Z,4.00
2023-05-14T17:47:48.812Z,3.70
2023-05-14T17:50:15.516Z,3.93
2023-05-14T17:52:44.130Z,3.70
2023-05-14T17:55:11.159Z,3.83
2023-05-14T17:57:38.066Z,3.50
2023-05-14T18:00:05.158Z,3.23
2023-05-14T18:02:31.744Z,3.97
2023-05-14T18:04:58.465Z,6.40
2023-05-14T18:07:25.081Z,4.93
2023-05-14T18:09:51.690Z,3.70
2023-05-14T18:12:18.282Z,3.50
2023-05-14T18:14:45.753Z,3.90
2023-05-14T18:17:12.477Z,3.77
2023-05-14T18:19:40.863Z,3.90
2023-05-14T18:22:07.402Z,4.43
2023-05-14T18:24:34.014Z,3.53
2023-05-14T18:27:00.875Z,3.93
2023-05-14T18:29:27.533Z,3.87
2023-05-14T18:31:54.094Z,3.93
2023-05-14T18:34:20.657Z,3.97
2023-05-14T18:36:47.856Z,4.43
2023-05-14T18:39:14.889Z,4.17
2023-05-14T18:41:41.853Z,4.13
2023-05-14T18:44:08.849Z,3.80
2023-05-14T18:46:35.983Z,4.30
2023-05-14T18:49:03.236Z,4.13
2023-05-14T18:51:30.343Z,4.03
2023-05-14T18:53:57.374Z,4.03
2023-05-14T18:56:25.504Z,4.47
2023-05-14T18:58:54.071Z,4.40
2023-05-14T19:01:23.097Z,5.33
2023-05-14T19:03:50.169Z,4.80
2023-05-14T19:06:17.650Z,4.73
2023-05-14T19:08:44.681Z,4.53
2023-05-14T19:11:11.783Z,4.73
2023-05-14T19:13:38.987Z,4.47
2023-05-14T19:16:06.228Z,5.50
2023-05-14T19:18:33.324Z,4.67
2023-05-14T19:21:00.419Z,6.10
2023-05-14T19:23:27.472Z,5.13
2023-05-14T19:25:54.587Z,5.00
2023-05-14T19:28:21.655Z,5.17
2023-05-14T19:30:50.746Z,5.03
2023-05-14T19:33:18.170Z,5.23
2023-05-14T19:35:45.261Z,4.87
2023-05-14T19:38:12.290Z,5.03
2023-05-14T19:40:39.342Z,4.60
2023-05-14T19:43:07.814Z,5.63
2023-05-14T19:45:39.173Z,6.33
2023-05-14T19:48:06.792Z,5.60
2023-05-14T19:50:34.372Z,7.57
2023-05-14T19:53:01.549Z,6.07
2023-05-14T19:55:28.644Z,6.43
2023-05-14T19:57:55.699Z,6.10
2023-05-14T20:00:23.321Z,6.40
2023-05-14T20:02:50.703Z,6.30
2023-05-14T20:05:17.858Z,5.97
2023-05-14T20:07:44.861Z,6.37
2023-05-14T20:10:11.887Z,6.33
2023-05-14T20:12:38.954Z,7.20
2023-05-14T20:15:06.178Z,7.37
2023-05-14T20:17:33.187Z,8.50
2023-05-14T20:20:00.253Z,6.97
2023-05-14T20:22:27.232Z,10.13
2023-05-14T20:24:54.341Z,6.90
2023-05-14T20:27:21.934Z,7.80
2023-05-14T20:29:51.247Z,8.27
2023-05-14T20:32:18.490Z,8.00
2023-05-14T20:34:45.461Z,7.60
2023-05-14T20:37:12.939Z,8.23
2023-05-14T20:39:40.044Z,8.40
2023-05-14T20:42:07.252Z,8.40
2023-05-14T20:44:34.267Z,9.13
2023-05-14T20:47:01.307Z,9.07
2023-05-14T20:49:28.416Z,9.30
2023-05-14T20:51:55.560Z,8.20
2023-05-14T20:54:22.521Z,8.77
2023-05-14T20:56:49.589Z,8.43
2023-05-14T20:59:16.594Z,8.70
2023-05-14T21:01:43.652Z,9.02
2023-05-14T21:04:10.898Z,9.30
2023-05-14T21:06:38.026Z,9.53
2023-05-14T21:09:05.022Z,8.68
2023-05-14T21:11:32.079Z,7.60
2023-05-14T21:13:59.086Z,7.60
2023-05-14T21:16:26.209Z,7.93
2023-05-14T21:18:53.328Z,8.30
2023-05-14T21:21:20.395Z,7.67
2023-05-14T21:23:47.653Z,7.77
2023-05-14T21:26:14.665Z,7.33
2023-05-14T21:28:42.686Z,8.47
2023-05-14T21:31:09.706Z,7.40
2023-05-14T21:33:36.737Z,7.23
2023-05-14T21:36:03.858Z,7.77
2023-05-14T21:38:32.428Z,8.40
2023-05-14T21:41:00.030Z,7.30
2023-05-14T21:43:27.300Z,7.93
2023-05-14T21:45:54.336Z,8.38
2023-05-14T21:48:22.044Z,7.80
2023-05-14T21:50:49.124Z,8.43
2023-05-14T21:53:16.114Z,8.03
2023-05-14T21:55:43.141Z,7.47
2023-05-14T21:58:10.273Z,10.20
2023-05-14T22:00:37.293Z,8.27
2023-05-14T22:03:04.409Z,8.40
2023-05-14T22:05:31.454Z,9.33
2023-05-14T22:07:58.500Z,9.00
2023-05-14T22:10:25.535Z,9.40
2023-05-14T22:12:52.528Z,9.80
2023-05-14T22:15:19.581Z,9.00
2023-05-14T22:17:47.342Z,12.23
2023-05-14T22:20:14.510Z,9.77
2023-05-14T22:22:41.538Z,9.13
2023-05-14T22:25:08.894Z,10.77
2023-05-14T22:27:35.903Z,10.53
2023-05-14T22:30:02.855Z,9.27
2023-05-14T22:32:29.862Z,9.77
2023-05-14T22:34:56.886Z,9.37
2023-05-14T22:37:23.949Z,9.50
2023-05-14T22:39:50.989Z,9.27
2023-05-14T22:42:20.096Z,9.50
2023-05-14T22:44:47.237Z,9.67
2023-05-14T22:47:14.272Z,10.07
2023-05-14T22:49:41.417Z,9.40
2023-05-14T22:52:08.414Z,9.37
2023-05-14T22:54:36.225Z,9.87
2023-05-14T22:57:03.500Z,9.87
2023-05-14T22:59:30.524Z,11.55
2023-05-14T23:01:57.538Z,10.00
2023-05-14T23:04:24.651Z,9.70
2023-05-14T23:06:51.685Z,9.83
2023-05-14T23:09:18.913Z,14.43
2023-05-14T23:11:46.105Z,9.67
2023-05-14T23:14:13.106Z,9.63
2023-05-14T23:16:40.090Z,10.23
2023-05-14T23:19:07.359Z,9.20
2023-05-14T23:21:34.493Z,9.13
2023-05-14T23:24:01.134Z,9.63
2023-05-14T23:26:27.816Z,9.73
2023-05-14T23:28:54.347Z,9.57
2023-05-14T23:31:21.238Z,10.17
2023-05-14T23:33:47.814Z,10.10
2023-05-14T23:36:14.921Z,9.20
2023-05-14T23:38:41.710Z,11.32
2023-05-14T23:41:08.310Z,10.63
2023-05-14T23:43:34.891Z,9.70
2023-05-14T23:46:01.618Z,8.83
2023-05-14T23:48:28.236Z,9.73
2023-05-14T23:50:54.810Z,8.60
2023-05-14T23:53:21.595Z,8.60
2023-05-14T23:55:48.155Z,8.87
2023-05-14T23:58:14.753Z,11.43
